Time;durP1;ratioP1;P1;durP2;ratioP2;P2;SDS_P1;SDS_P2;PMS_P1;PMS_P2;Temp;Humidity;BMP_temperature;BMP_pressure;BME280_temperature;BME280_humidity;BME280_pressure;Samples;Min_cycle;Max_cycle;Signal;HPM_P1;HPM_P2
2023/05/30 00:01:16;;;;;;;2.55;1.20;;;20.20;66.60;;;;;;5164250;27;46444;-70
2023/05/30 00:03:44;;;;;;;4.60;1.20;;;20.20;66.50;;;;;;5155503;27;45396;-70
2023/05/30 00:06:12;;;;;;;3.28;1.20;;;20.20;66.30;;;;;;5164894;27;45299;-70
2023/05/30 00:08:39;;;;;;;3.17;1.08;;;20.20;66.30;;;;;;5158608;27;45394;-70
2023/05/30 00:11:06;;;;;;;3.38;1.45;;;20.20;66.50;;;;;;5163741;27;46293;-70
2023/05/30 00:13:33;;;;;;;3.30;1.05;;;20.10;66.60;;;;;;5163905;27;45522;-71
2023/05/30 00:16:01;;;;;;;3.13;1.10;;;20.20;66.80;;;;;;5162667;27;45426;-71
2023/05/30 00:18:34;;;;;;;2.75;1.10;;;20.20;66.90;;;;;;5163871;27;45221;-71
2023/05/30 00:21:03;;;;;;;3.15;1.10;;;20.10;67.20;;;;;;5155248;27;45758;-70
2023/05/30 00:23:31;;;;;;;5.82;1.73;;;20.20;66.90;;;;;;5159406;27;45509;-70
2023/05/30 00:25:59;;;;;;;1.92;0.93;;;20.10;66.80;;;;;;5154577;27;45433;-70
2023/05/30 00:28:26;;;;;;;5.72;1.30;;;20.10;66.40;;;;;;5159853;27;45220;-71
2023/05/30 00:30:53;;;;;;;4.28;0.98;;;20.10;66.40;;;;;;5158563;27;46317;-70
2023/05/30 00:33:20;;;;;;;4.22;1.13;;;20.10;66.80;;;;;;5156422;27;45308;-70
2023/05/30 00:35:47;;;;;;;2.75;1.13;;;20.10;66.50;;;;;;5162190;27;45370;-70
2023/05/30 00:38:16;;;;;;;4.40;1.15;;;20.10;65.70;;;;;;5159339;27;45412;-70
2023/05/30 00:40:43;;;;;;;2.53;1.10;;;20.10;65.60;;;;;;5162117;27;48216;-70
2023/05/30 00:43:09;;;;;;;2.90;1.00;;;20.10;65.40;;;;;;5154621;27;45420;-71
2023/05/30 00:45:36;;;;;;;5.07;1.35;;;20.20;65.50;;;;;;5164491;27;45325;-70
2023/05/30 00:48:05;;;;;;;5.82;1.20;;;20.10;65.40;;;;;;5165127;27;45510;-71
2023/05/30 00:50:33;;;;;;;5.93;1.80;;;20.20;65.30;;;;;;5157481;27;45474;-71
2023/05/30 00:53:01;;;;;;;2.90;1.13;;;20.10;65.00;;;;;;5163025;27;45439;-71
2023/05/30 00:55:29;;;;;;;2.75;1.02;;;20.10;65.00;;;;;;5160066;27;45319;-70
2023/05/30 00:57:56;;;;;;;2.78;0.98;;;20.10;64.70;;;;;;5162384;27;45288;-71
2023/05/30 01:00:25;;;;;;;4.00;1.10;;;20.10;64.80;;;;;;5164474;27;45307;-71
2023/05/30 01:02:57;;;;;;;3.53;1.10;;;20.10;64.70;;;;;;5157054;27;45516;-71
2023/05/30 01:05:24;;;;;;;6.57;1.10;;;20.10;64.70;;;;;;5164164;27;45330;-70
2023/05/30 01:07:52;;;;;;;4.47;1.10;;;20.10;64.90;;;;;;5164067;27;45562;-71
2023/05/30 01:10:19;;;;;;;3.88;1.05;;;20.10;64.80;;;;;;5160742;27;46352;-70
2023/05/30 01:12:55;;;;;;;2.53;1.30;;;20.10;64.70;;;;;;5164228;27;45754;-70
2023/05/30 01:15:26;;;;;;;3.45;1.08;;;20.10;64.90;;;;;;5154384;27;45501;-71
2023/05/30 01:18:00;;;;;;;4.68;1.40;;;20.10;64.20;;;;;;5167296;27;45437;-70
2023/05/30 01:20:28;;;;;;;3.25;1.00;;;20.00;64.50;;;;;;5165852;27;46511;-71
2023/05/30 01:23:14;;;;;;;4.35;1.20;;;20.10;64.30;;;;;;5162639;27;45825;-71
2023/05/30 01:26:06;;;;;;;3.72;1.23;;;20.00;63.30;;;;;;5161747;27;45430;-70
2023/05/30 01:28:37;;;;;;;2.78;1.02;;;20.10;63.70;;;;;;5156947;27;45519;-70
2023/05/30 01:31:05;;;;;;;4.38;1.10;;;20.10;64.10;;;;;;5157059;27;45433;-71
2023/05/30 01:33:33;;;;;;;4.85;1.40;;;20.00;64.00;;;;;;5159713;27;45366;-71
2023/05/30 01:36:00;;;;;;;2.58;1.02;;;20.10;63.50;;;;;;5164695;27;45436;-71
2023/05/30 01:38:27;;;;;;;2.90;0.85;;;20.00;63.50;;;;;;5162239;27;45425;-71
2023/05/30 01:40:56;;;;;;;4.18;1.08;;;20.00;63.60;;;;;;5159722;27;46410;-71
2023/05/30 01:43:36;;;;;;;5.07;1.05;;;20.10;63.60;;;;;;5156378;27;45866;-71
2023/05/30 01:46:15;;;;;;;2.65;0.88;;;20.00;63.20;;;;;;5172590;27;45204;-71
2023/05/30 01:48:58;;;;;;;5.30;1.20;;;20.10;63.30;;;;;;5159463;27;45588;-70
2023/05/30 01:51:30;;;;;;;3.35;1.17;;;20.00;63.10;;;;;;5161556;27;45392;-70
2023/05/30 01:53:59;;;;;;;3.83;0.77;;;20.10;63.10;;;;;;5161230;27;45372;-70
2023/05/30 01:56:27;;;;;;;4.95;1.23;;;20.10;63.00;;;;;;5162908;27;45378;-70
2023/05/30 01:58:54;;;;;;;4.65;1.23;;;20.00;62.50;;;;;;5160882;27;45420;-70
2023/05/30 02:01:27;;;;;;;5.47;1.20;;;20.10;62.60;;;;;;5157562;27;48624;-70
2023/05/30 02:03:54;;;;;;;4.32;1.35;;;20.00;62.60;;;;;;5157605;27;45375;-70
2023/05/30 02:06:22;;;;;;;4.28;1.08;;;20.00;62.80;;;;;;5154475;27;45400;-71
2023/05/30 02:08:49;;;;;;;3.70;1.40;;;20.00;62.80;;;;;;5161337;27;45427;-70
2023/05/30 02:11:17;;;;;;;4.05;0.90;;;20.00;62.40;;;;;;5160645;27;45504;-71
2023/05/30 02:13:44;;;;;;;4.00;1.10;;;20.00;62.40;;;;;;5166159;27;45404;-71
2023/05/30 02:16:11;;;;;;;3.58;1.17;;;20.00;62.60;;;;;;5165422;27;45488;-71
2023/05/30 02:18:41;;;;;;;3.28;1.10;;;20.00;62.30;;;;;;5164312;27;45575;-71
2023/05/30 02:21:08;;;;;;;2.83;1.08;;;20.00;62.20;;;;;;5159645;27;45284;-70
2023/05/30 02:23:35;;;;;;;3.92;1.42;;;20.00;61.70;;;;;;5154051;27;45382;-70
2023/05/30 02:26:02;;;;;;;2.88;1.00;;;20.00;62.70;;;;;;5149496;27;45452;-70
2023/05/30 02:28:29;;;;;;;3.10;0.93;;;20.00;62.70;;;;;;5158367;27;45251;-71
2023/05/30 02:30:56;;;;;;;2.83;0.93;;;20.00;62.60;;;;;;5161205;27;46455;-71
2023/05/30 02:33:23;;;;;;;2.90;0.90;;;20.00;62.50;;;;;;5164267;27;45752;-70
2023/05/30 02:35:51;;;;;;;3.95;1.20;;;20.00;62.20;;;;;;5164359;27;45258;-70
2023/05/30 02:38:17;;;;;;;2.75;1.08;;;20.00;62.10;;;;;;5163460;27;45403;-71
2023/05/30 02:40:44;;;;;;;3.63;1.20;;;20.00;62.10;;;;;;5160533;27;46450;-70
2023/05/30 02:43:12;;;;;;;2.53;1.10;;;20.00;62.20;;;;;;5162359;27;45297;-71
2023/05/30 02:45:38;;;;;;;3.25;1.25;;;20.00;62.10;;;;;;5158253;27;45346;-70
2023/05/30 02:48:07;;;;;;;3.03;0.95;;;20.00;62.00;;;;;;5163908;27;45443;-71
2023/05/30 02:50:34;;;;;;;8.07;1.10;;;20.10;62.10;;;;;;5155079;27;46274;-70
2023/05/30 02:53:02;;;;;;;4.47;1.20;;;20.00;61.70;;;;;;5164047;27;45499;-70
2023/05/30 02:55:29;;;;;;;6.85;1.38;;;20.00;61.70;;;;;;5152895;27;45468;-71
2023/05/30 02:57:55;;;;;;;2.00;0.73;;;20.00;61.80;;;;;;5155730;27;45412;-70
2023/05/30 03:00:22;;;;;;;5.15;1.55;;;20.00;61.40;;;;;;5155576;27;47091;-70
2023/05/30 03:02:49;;;;;;;2.88;0.95;;;20.00;61.50;;;;;;5155196;27;45799;-71
2023/05/30 03:05:17;;;;;;;2.00;0.80;;;20.00;61.30;;;;;;5156557;27;45593;-70
2023/05/30 03:07:43;;;;;;;2.75;0.80;;;20.00;61.20;;;;;;5158322;27;45450;-70
2023/05/30 03:10:12;;;;;;;5.45;1.23;;;20.00;61.20;;;;;;5163098;27;45250;-70
2023/05/30 03:12:39;;;;;;;3.95;1.10;;;20.00;61.10;;;;;;5154025;27;45466;-70
2023/05/30 03:15:07;;;;;;;2.38;1.00;;;20.00;60.70;;;;;;5154253;27;45513;-70
2023/05/30 03:17:34;;;;;;;4.40;0.90;;;20.00;61.20;;;;;;5162297;27;45770;-70
2023/05/30 03:20:01;;;;;;;2.78;0.88;;;20.00;61.20;;;;;;5164441;27;47260;-70
2023/05/30 03:22:28;;;;;;;2.30;0.90;;;19.90;60.90;;;;;;5158364;27;45449;-70
2023/05/30 03:24:54;;;;;;;2.22;0.90;;;20.00;60.80;;;;;;5155057;27;45324;-71
2023/05/30 03:27:23;;;;;;;3.90;1.17;;;19.90;60.30;;;;;;5160978;27;45559;-70
2023/05/30 03:29:49;;;;;;;3.17;1.17;;;19.90;60.10;;;;;;5165154;27;47558;-71
2023/05/30 03:32:16;;;;;;;1.65;0.70;;;19.90;60.00;;;;;;5152980;27;45450;-70
2023/05/30 03:34:45;;;;;;;6.78;1.40;;;19.90;60.20;;;;;;5160003;27;45499;-71
2023/05/30 03:37:11;;;;;;;5.18;1.10;;;19.90;60.30;;;;;;5148134;27;45527;-70
2023/05/30 03:39:38;;;;;;;4.95;1.10;;;19.90;60.40;;;;;;5150995;27;47507;-72
2023/05/30 03:42:06;;;;;;;3.38;1.38;;;20.00;60.80;;;;;;5153329;27;45379;-75
2023/05/30 03:44:34;;;;;;;2.70;1.15;;;19.90;60.60;;;;;;5156154;27;45417;-74
2023/05/30 03:47:01;;;;;;;3.65;1.10;;;19.90;60.50;;;;;;5165257;27;45584;-74
2023/05/30 03:49:28;;;;;;;2.22;0.65;;;19.90;60.80;;;;;;5153017;27;46619;-73
2023/05/30 03:51:54;;;;;;;6.45;1.25;;;20.00;60.90;;;;;;5155974;27;45985;-73
2023/05/30 03:54:21;;;;;;;4.85;0.80;;;20.00;61.10;;;;;;5160853;27;45346;-72
2023/05/30 03:56:48;;;;;;;4.93;1.40;;;20.00;61.00;;;;;;5157506;27;45581;-72
2023/05/30 03:59:15;;;;;;;3.08;0.88;;;20.00;61.00;;;;;;5158261;27;46482;-73
2023/05/30 04:01:43;;;;;;;4.63;1.35;;;20.00;61.10;;;;;;5162415;27;45409;-72
2023/05/30 04:04:10;;;;;;;2.78;0.95;;;19.90;61.00;;;;;;5162577;27;45290;-72
2023/05/30 04:06:38;;;;;;;3.33;1.10;;;20.00;61.30;;;;;;5150992;27;45373;-71
2023/05/30 04:09:05;;;;;;;4.35;1.00;;;19.90;61.20;;;;;;5163738;27;46647;-71
2023/05/30 04:11:32;;;;;;;4.00;1.30;;;19.90;61.00;;;;;;5156301;27;45416;-72
2023/05/30 04:13:59;;;;;;;6.00;1.20;;;20.00;61.00;;;;;;5159775;27;45401;-72
2023/05/30 04:16:26;;;;;;;5.32;1.38;;;19.90;61.40;;;;;;5153534;27;45467;-71
2023/05/30 04:18:54;;;;;;;3.53;0.80;;;20.00;61.70;;;;;;5151712;27;46282;-71
2023/05/30 04:21:21;;;;;;;2.85;1.00;;;20.00;61.60;;;;;;5154712;27;45498;-71
2023/05/30 04:23:47;;;;;;;3.17;1.20;;;20.00;61.50;;;;;;5158258;27;45394;-71
2023/05/30 04:26:14;;;;;;;3.35;1.17;;;20.00;61.50;;;;;;5165110;27;45288;-71
2023/05/30 04:28:43;;;;;;;5.15;1.13;;;20.00;61.60;;;;;;5162962;27;45532;-71
2023/05/30 04:31:10;;;;;;;4.68;1.20;;;20.00;61.60;;;;;;5164503;27;45682;-71
2023/05/30 04:33:38;;;;;;;2.70;1.13;;;20.00;61.60;;;;;;5164175;27;45353;-71
2023/05/30 04:36:10;;;;;;;5.20;1.27;;;20.00;61.70;;;;;;5162153;27;45447;-71
2023/05/30 04:38:37;;;;;;;5.35;1.58;;;20.00;61.50;;;;;;5159291;27;47653;-71
2023/05/30 04:41:05;;;;;;;4.28;1.05;;;20.00;61.70;;;;;;5152928;27;45473;-71
2023/05/30 04:43:34;;;;;;;2.63;1.13;;;20.00;61.70;;;;;;5164819;27;45554;-71
2023/05/30 04:46:03;;;;;;;10.02;1.25;;;20.00;61.70;;;;;;5150674;27;45344;-72
2023/05/30 04:48:30;;;;;;;4.00;1.20;;;20.00;61.50;;;;;;5152984;27;48254;-71
2023/05/30 04:50:59;;;;;;;7.07;1.45;;;20.00;61.70;;;;;;5162131;27;45546;-71
2023/05/30 04:53:27;;;;;;;3.97;1.20;;;20.00;61.50;;;;;;5159716;27;45452;-71
2023/05/30 04:55:54;;;;;;;4.18;1.38;;;20.00;61.60;;;;;;5159730;27;45446;-71
2023/05/30 04:58:20;;;;;;;3.85;1.38;;;20.00;61.70;;;;;;5161461;27;46757;-71
2023/05/30 05:00:48;;;;;;;4.43;0.93;;;20.00;61.70;;;;;;5154833;27;45750;-71
2023/05/30 05:03:15;;;;;;;4.45;1.38;;;20.00;61.60;;;;;;5174161;27;45564;-71
2023/05/30 05:05:41;;;;;;;3.25;1.30;;;20.00;61.40;;;;;;5159411;27;45464;-71
2023/05/30 05:08:08;;;;;;;2.85;1.20;;;20.00;61.40;;;;;;5158706;27;45550;-71
2023/05/30 05:10:36;;;;;;;2.78;1.25;;;20.00;61.50;;;;;;5160384;27;45332;-71
2023/05/30 05:13:03;;;;;;;2.92;1.08;;;20.00;61.80;;;;;;5163763;27;45474;-70
2023/05/30 05:15:30;;;;;;;3.20;1.10;;;20.00;61.90;;;;;;5163122;27;45557;-71
2023/05/30 05:17:57;;;;;;;4.55;1.40;;;20.00;61.80;;;;;;5167645;27;45345;-70
2023/05/30 05:20:24;;;;;;;2.95;1.10;;;20.00;61.70;;;;;;5167429;27;45495;-71
2023/05/30 05:22:51;;;;;;;4.38;1.20;;;20.00;61.80;;;;;;5168284;27;45442;-70
2023/05/30 05:25:17;;;;;;;5.70;1.50;;;20.10;61.50;;;;;;5168389;27;45369;-70
2023/05/30 05:27:45;;;;;;;3.50;1.52;;;20.00;61.10;;;;;;5167460;27;46408;-70
2023/05/30 05:30:13;;;;;;;3.38;1.30;;;20.00;61.20;;;;;;5160638;27;45312;-71
2023/05/30 05:32:40;;;;;;;3.97;1.38;;;20.10;61.20;;;;;;5169585;27;45269;-71
2023/05/30 05:35:09;;;;;;;4.60;1.27;;;20.10;61.20;;;;;;5168129;27;45404;-71
2023/05/30 05:37:36;;;;;;;4.32;1.55;;;20.10;60.80;;;;;;5164920;27;47656;-71
2023/05/30 05:40:05;;;;;;;3.55;1.60;;;20.00;60.30;;;;;;5163450;27;45685;-71
2023/05/30 05:42:32;;;;;;;6.40;1.50;;;20.00;60.00;;;;;;5159391;27;45355;-71
2023/05/30 05:45:01;;;;;;;7.15;1.88;;;20.00;59.60;;;;;;5161494;27;45401;-71
2023/05/30 05:47:28;;;;;;;4.18;1.38;;;20.00;59.40;;;;;;5164131;27;48025;-70
2023/05/30 05:49:55;;;;;;;3.83;1.50;;;19.90;59.00;;;;;;5157508;27;45413;-71
2023/05/30 05:52:21;;;;;;;8.00;1.30;;;19.90;59.00;;;;;;5151888;27;45424;-72
2023/05/30 05:54:48;;;;;;;4.82;1.67;;;19.90;58.70;;;;;;5152415;27;45342;-71
2023/05/30 05:57:15;;;;;;;3.30;1.20;;;20.00;58.80;;;;;;5153922;27;45497;-71
2023/05/30 05:59:42;;;;;;;5.10;1.20;;;19.90;58.80;;;;;;5158028;27;45493;-71
2023/05/30 06:02:10;;;;;;;5.72;1.67;;;19.90;59.60;;;;;;5154983;27;45500;-70
2023/05/30 06:04:38;;;;;;;4.20;1.67;;;20.00;60.00;;;;;;5152684;27;45416;-71
2023/05/30 06:07:05;;;;;;;4.93;1.50;;;20.00;60.10;;;;;;5160078;27;46066;-70
2023/05/30 06:09:34;;;;;;;4.43;1.42;;;20.00;60.30;;;;;;5166106;27;45335;-71
2023/05/30 06:12:01;;;;;;;4.65;1.25;;;20.00;60.50;;;;;;5164422;27;45452;-71
2023/05/30 06:14:28;;;;;;;5.15;1.38;;;20.00;60.70;;;;;;5166168;27;45222;-71
2023/05/30 06:16:55;;;;;;;2.25;1.00;;;20.00;60.80;;;;;;5165572;27;46601;-70
2023/05/30 06:19:23;;;;;;;3.83;1.23;;;20.00;60.80;;;;;;5167538;27;45377;-71
2023/05/30 06:21:50;;;;;;;6.53;1.77;;;20.00;60.90;;;;;;5162482;27;45401;-71
2023/05/30 06:24:17;;;;;;;4.03;1.60;;;20.10;61.00;;;;;;5169973;27;45364;-70
2023/05/30 06:26:44;;;;;;;4.07;1.30;;;20.00;61.10;;;;;;5163461;27;47546;-70
2023/05/30 06:29:11;;;;;;;5.20;1.38;;;20.10;61.10;;;;;;5163867;27;46014;-71
2023/05/30 06:31:37;;;;;;;3.97;1.55;;;20.10;61.20;;;;;;5167221;27;45329;-70
2023/05/30 06:34:04;;;;;;;3.70;1.10;;;20.10;61.10;;;;;;5167380;27;45493;-71
2023/05/30 06:36:33;;;;;;;3.35;1.15;;;20.10;61.00;;;;;;5157456;27;46331;-71
2023/05/30 06:38:59;;;;;;;9.68;1.33;;;20.10;60.90;;;;;;5155023;27;45468;-71
2023/05/30 06:41:26;;;;;;;4.22;1.48;;;20.10;60.90;;;;;;5164361;27;45527;-70
2023/05/30 06:43:53;;;;;;;4.28;1.60;;;20.10;61.00;;;;;;5167433;27;45282;-70
2023/05/30 06:46:20;;;;;;;5.47;1.50;;;20.10;60.80;;;;;;5164778;27;46778;-71
2023/05/30 06:48:47;;;;;;;2.22;1.30;;;20.00;60.80;;;;;;5161049;27;45350;-71
2023/05/30 06:51:14;;;;;;;3.55;1.20;;;20.00;60.70;;;;;;5159561;27;45394;-71
2023/05/30 06:53:42;;;;;;;4.38;1.73;;;20.10;60.80;;;;;;5164878;27;45422;-70
2023/05/30 06:56:08;;;;;;;7.20;1.60;;;20.00;60.70;;;;;;5159980;27;47066;-71
2023/05/30 06:58:35;;;;;;;3.13;1.15;;;20.00;60.70;;;;;;5155279;27;45389;-75
2023/05/30 07:01:02;;;;;;;7.47;1.90;;;20.00;60.70;;;;;;5159040;27;45362;-75
2023/05/30 07:03:29;;;;;;;4.25;1.50;;;20.00;60.80;;;;;;5166105;27;45824;-74
2023/05/30 07:05:55;;;;;;;3.28;1.45;;;20.10;61.10;;;;;;5166504;27;47006;-74
2023/05/30 07:08:22;;;;;;;3.67;1.35;;;20.10;61.30;;;;;;5165153;27;45255;-73
2023/05/30 07:10:50;;;;;;;4.40;1.33;;;20.10;61.20;;;;;;5166727;27;45331;-73
2023/05/30 07:13:17;;;;;;;6.28;1.85;;;20.10;61.30;;;;;;5164578;27;45619;-73
2023/05/30 07:15:44;;;;;;;6.10;1.50;;;20.10;61.30;;;;;;5166366;27;46374;-72
2023/05/30 07:18:11;;;;;;;5.03;1.65;;;20.10;61.20;;;;;;5165612;27;45268;-72
2023/05/30 07:20:37;;;;;;;3.17;1.30;;;20.10;61.30;;;;;;5166325;27;45277;-72
2023/05/30 07:23:04;;;;;;;5.47;1.40;;;20.10;61.30;;;;;;5165977;27;45589;-71
2023/05/30 07:25:31;;;;;;;2.45;1.30;;;20.10;61.30;;;;;;5165527;27;47382;-72
2023/05/30 07:28:00;;;;;;;5.72;1.55;;;20.10;61.30;;;;;;5161023;27;45396;-71
2023/05/30 07:30:26;;;;;;;3.78;1.90;;;20.10;61.20;;;;;;5165722;27;45479;-72
2023/05/30 07:32:53;;;;;;;3.45;1.15;;;20.10;61.10;;;;;;5164887;27;45269;-71
2023/05/30 07:35:20;;;;;;;3.95;1.52;;;20.10;61.00;;;;;;5165274;27;46198;-71
2023/05/30 07:37:46;;;;;;;3.00;1.20;;;20.10;61.00;;;;;;5164312;27;45376;-71
2023/05/30 07:40:17;;;;;;;4.70;1.55;;;20.10;61.00;;;;;;5165155;27;45330;-71
2023/05/30 07:42:43;;;;;;;6.38;1.75;;;20.10;60.90;;;;;;5163380;27;45297;-71
2023/05/30 07:45:12;;;;;;;2.22;1.40;;;20.10;60.90;;;;;;5165117;27;46081;-71
2023/05/30 07:47:38;;;;;;;5.18;1.60;;;20.10;61.00;;;;;;5152842;27;45293;-71
2023/05/30 07:50:07;;;;;;;3.38;1.33;;;20.10;61.00;;;;;;5159006;27;45368;-71
2023/05/30 07:52:34;;;;;;;5.03;1.30;;;20.10;60.90;;;;;;5160716;27;45500;-71
2023/05/30 07:55:00;;;;;;;3.47;1.45;;;20.10;60.90;;;;;;5167016;27;46075;-71
2023/05/30 07:57:27;;;;;;;3.75;1.30;;;20.10;60.90;;;;;;5163758;27;45382;-71
2023/05/30 07:59:54;;;;;;;3.90;1.58;;;20.10;61.10;;;;;;5165033;27;45345;-71
2023/05/30 08:02:25;;;;;;;3.92;1.35;;;20.10;61.10;;;;;;5165372;27;45476;-70
2023/05/30 08:04:52;;;;;;;2.45;1.00;;;20.10;61.20;;;;;;5161820;27;46525;-72
2023/05/30 08:07:19;;;;;;;1.92;1.10;;;20.20;61.40;;;;;;5164146;27;45400;-72
2023/05/30 08:09:46;;;;;;;2.88;1.05;;;20.10;61.20;;;;;;5166069;27;45272;-71
2023/05/30 08:12:18;;;;;;;2.90;1.10;;;20.10;61.20;;;;;;5165462;27;45395;-71
2023/05/30 08:14:45;;;;;;;2.67;1.08;;;20.20;61.20;;;;;;5165250;27;47368;-72
2023/05/30 08:17:12;;;;;;;3.45;1.30;;;20.20;61.30;;;;;;5165104;27;45293;-71
2023/05/30 08:19:42;;;;;;;3.83;1.52;;;20.20;61.20;;;;;;5163595;27;45571;-71
2023/05/30 08:22:10;;;;;;;5.38;1.38;;;20.20;61.20;;;;;;5164769;27;45363;-71
2023/05/30 08:24:36;;;;;;;3.10;1.40;;;20.20;61.20;;;;;;5164933;27;48769;-71
2023/05/30 08:27:04;;;;;;;3.25;1.48;;;20.20;61.20;;;;;;5164938;27;45397;-71
2023/05/30 08:29:32;;;;;;;3.42;1.58;;;20.20;61.10;;;;;;5165847;27;45483;-71
2023/05/30 08:31:59;;;;;;;4.82;1.50;;;20.10;60.80;;;;;;5165368;27;45262;-71
2023/05/30 08:34:26;;;;;;;2.95;1.38;;;20.10;60.70;;;;;;5165311;27;47479;-71
2023/05/30 08:36:55;;;;;;;3.72;1.27;;;20.10;60.50;;;;;;5157960;27;45414;-71
2023/05/30 08:39:22;;;;;;;4.78;1.45;;;20.10;60.60;;;;;;5165162;27;45416;-71
2023/05/30 08:41:49;;;;;;;5.45;1.50;;;20.10;60.50;;;;;;5171669;27;45448;-71
2023/05/30 08:44:15;;;;;;;3.67;1.10;;;20.10;60.50;;;;;;5166613;27;47514;-71
2023/05/30 08:46:43;;;;;;;3.50;1.38;;;20.10;60.40;;;;;;5164155;27;45465;-71
2023/05/30 08:49:13;;;;;;;3.05;1.35;;;20.10;60.30;;;;;;5165116;27;45453;-70
2023/05/30 08:51:43;;;;;;;3.78;1.45;;;20.10;60.30;;;;;;5158286;27;45629;-70
2023/05/30 08:54:17;;;;;;;3.35;1.08;;;20.10;60.40;;;;;;5164172;27;46358;-70
2023/05/30 08:56:48;;;;;;;3.75;1.20;;;20.10;60.50;;;;;;5163546;27;45389;-71
2023/05/30 08:59:18;;;;;;;4.45;1.30;;;20.20;61.70;;;;;;5162259;27;45313;-70
2023/05/30 09:01:46;;;;;;;5.60;1.48;;;20.20;60.70;;;;;;5164766;27;45326;-71
2023/05/30 09:04:15;;;;;;;4.57;1.30;;;20.20;60.70;;;;;;5164328;27;46240;-71
2023/05/30 09:06:44;;;;;;;2.70;1.40;;;20.20;60.70;;;;;;5164690;27;45294;-71
2023/05/30 09:09:13;;;;;;;3.80;1.27;;;20.20;60.60;;;;;;5164726;27;45364;-70
2023/05/30 09:11:40;;;;;;;3.35;1.20;;;20.20;60.60;;;;;;5157320;27;45563;-70
2023/05/30 09:14:08;;;;;;;2.40;1.20;;;20.20;60.50;;;;;;5164640;27;47370;-71
2023/05/30 09:16:34;;;;;;;2.53;1.27;;;20.20;60.50;;;;;;5154891;27;45355;-71
2023/05/30 09:19:02;;;;;;;5.05;1.52;;;20.20;60.50;;;;;;5164724;27;45547;-71
2023/05/30 09:21:30;;;;;;;4.07;1.42;;;20.20;60.50;;;;;;5164417;27;45288;-71
2023/05/30 09:24:03;;;;;;;2.45;1.10;;;20.20;60.30;;;;;;5164140;27;47268;-70
2023/05/30 09:26:32;;;;;;;5.05;1.50;;;20.20;60.30;;;;;;5162427;27;45766;-71
2023/05/30 09:29:08;;;;;;;3.78;1.30;;;20.20;60.10;;;;;;5160029;27;45450;-71
2023/05/30 09:31:37;;;;;;;4.97;1.55;;;20.20;60.10;;;;;;5164612;27;45359;-71
2023/05/30 09:34:05;;;;;;;3.35;1.30;;;20.20;60.00;;;;;;5165227;27;45502;-71
2023/05/30 09:36:32;;;;;;;3.05;1.25;;;20.20;60.00;;;;;;5159219;27;45517;-71
2023/05/30 09:39:02;;;;;;;4.70;1.63;;;20.20;60.00;;;;;;5168214;27;45425;-70
2023/05/30 09:41:31;;;;;;;4.82;1.45;;;20.20;59.90;;;;;;5166959;27;45516;-70
2023/05/30 09:43:58;;;;;;;2.78;1.33;;;20.20;59.70;;;;;;5170095;27;45401;-71
2023/05/30 09:46:27;;;;;;;3.30;1.30;;;20.20;59.80;;;;;;5159806;27;45463;-71
2023/05/30 09:48:55;;;;;;;3.55;1.35;;;20.20;59.80;;;;;;5161512;27;45382;-71
2023/05/30 09:51:25;;;;;;;3.42;1.20;;;20.20;60.00;;;;;;5160099;27;45589;-70
2023/05/30 09:53:57;;;;;;;3.30;1.25;;;20.20;59.90;;;;;;5167419;27;45477;-71
2023/05/30 09:56:45;;;;;;;2.28;1.40;;;20.20;59.90;;;;;;5160192;27;45291;-71
2023/05/30 09:59:15;;;;;;;3.65;1.08;;;20.20;59.90;;;;;;5160536;27;45332;-70
2023/05/30 10:01:43;;;;;;;3.15;1.25;;;20.20;60.00;;;;;;5166549;27;45427;-71
2023/05/30 10:04:14;;;;;;;2.50;1.30;;;20.20;59.90;;;;;;5160728;27;46692;-71
2023/05/30 10:06:43;;;;;;;3.78;1.35;;;20.20;59.90;;;;;;5167151;27;45466;-70
2023/05/30 10:09:11;;;;;;;2.60;1.30;;;20.20;59.80;;;;;;5167133;27;45421;-71
2023/05/30 10:11:39;;;;;;;3.80;1.20;;;20.20;59.80;;;;;;5167664;27;45482;-71
2023/05/30 10:14:08;;;;;;;2.65;1.02;;;20.20;59.80;;;;;;5156314;27;46666;-71
2023/05/30 10:16:40;;;;;;;2.50;1.20;;;20.20;59.70;;;;;;5166694;27;45327;-71
2023/05/30 10:19:12;;;;;;;2.13;1.30;;;20.20;59.60;;;;;;5161092;27;45472;-72
2023/05/30 10:21:40;;;;;;;3.47;1.40;;;20.20;59.30;;;;;;5148952;27;45568;-71
2023/05/30 10:24:10;;;;;;;3.85;1.40;;;20.30;59.50;;;;;;5147511;27;45448;-71
2023/05/30 10:26:47;;;;;;;2.90;1.23;;;20.30;59.60;;;;;;5147033;27;45669;-70
2023/05/30 10:29:18;;;;;;;2.97;1.20;;;20.20;59.90;;;;;;5144993;27;45543;-71
2023/05/30 10:31:45;;;;;;;2.65;1.00;;;20.20;59.70;;;;;;5156066;27;45347;-71
2023/05/30 10:34:15;;;;;;;3.72;1.33;;;20.20;60.00;;;;;;5151580;27;45454;-70
2023/05/30 10:36:43;;;;;;;4.40;1.65;;;20.20;59.90;;;;;;5160117;27;45519;-70
2023/05/30 10:39:18;;;;;;;4.75;1.48;;;20.20;59.60;;;;;;5161224;27;45299;-70
2023/05/30 10:41:52;;;;;;;3.58;1.58;;;20.20;59.40;;;;;;5166645;27;45260;-71
2023/05/30 10:44:33;;;;;;;2.28;1.23;;;20.20;59.70;;;;;;5161673;27;45410;-71
2023/05/30 10:47:21;;;;;;;1.65;1.05;;;20.20;60.00;;;;;;5162410;27;45415;-71
2023/05/30 10:49:49;;;;;;;2.88;1.63;;;20.20;60.60;;;;;;5162224;27;45281;-71
2023/05/30 10:52:17;;;;;;;2.22;1.10;;;20.20;59.40;;;;;;5164708;27;45607;-70
2023/05/30 10:54:46;;;;;;;2.97;1.33;;;20.20;59.50;;;;;;5162055;27;46572;-71
2023/05/30 10:57:28;;;;;;;3.58;1.33;;;20.30;59.60;;;;;;5165901;27;46310;-70
2023/05/30 10:59:56;;;;;;;3.85;1.23;;;20.30;59.50;;;;;;5162181;27;45374;-71
2023/05/30 11:02:35;;;;;;;1.80;1.10;;;20.30;59.40;;;;;;5166637;27;45527;-70
2023/05/30 11:05:06;;;;;;;4.07;1.30;;;20.30;59.30;;;;;;5161859;27;47727;-71
2023/05/30 11:07:36;;;;;;;2.60;1.17;;;20.30;59.40;;;;;;5157510;27;45930;-70
2023/05/30 11:10:04;;;;;;;2.72;1.13;;;20.30;59.30;;;;;;5161679;27;45414;-71
2023/05/30 11:12:31;;;;;;;5.03;1.30;;;20.30;59.00;;;;;;5157960;27;45396;-70
2023/05/30 11:15:00;;;;;;;4.45;1.45;;;20.20;59.00;;;;;;5165855;27;46653;-71
2023/05/30 11:17:33;;;;;;;1.92;1.10;;;20.20;58.80;;;;;;5163230;27;45430;-70
2023/05/30 11:20:08;;;;;;;2.47;1.38;;;20.20;58.70;;;;;;5166705;27;45304;-70
2023/05/30 11:22:35;;;;;;;3.83;1.30;;;20.30;59.00;;;;;;5156102;27;45432;-71
2023/05/30 11:25:23;;;;;;;2.38;1.10;;;20.20;58.80;;;;;;5156647;27;46659;-70
2023/05/30 11:28:15;;;;;;;4.13;1.20;;;20.20;58.80;;;;;;5159773;27;46061;-71
2023/05/30 11:30:47;;;;;;;2.60;1.30;;;20.20;59.20;;;;;;5157382;27;45257;-70
2023/05/30 11:33:16;;;;;;;2.00;1.38;;;20.20;58.90;;;;;;5161245;27;45550;-70
2023/05/30 11:35:47;;;;;;;3.47;1.50;;;20.20;59.00;;;;;;5157846;27;47374;-70
2023/05/30 11:38:19;;;;;;;2.63;1.40;;;20.20;58.80;;;;;;5164351;27;45422;-70
2023/05/30 11:40:46;;;;;;;2.15;1.10;;;20.30;59.20;;;;;;5165799;27;45334;-71
2023/05/30 11:43:15;;;;;;;3.38;1.27;;;20.30;59.10;;;;;;5157492;27;45485;-70
2023/05/30 11:45:42;;;;;;;3.20;1.30;;;20.30;58.80;;;;;;5163409;27;46573;-70
2023/05/30 11:48:10;;;;;;;2.58;1.27;;;20.30;58.80;;;;;;5161159;27;45450;-70
2023/05/30 11:50:38;;;;;;;1.85;1.10;;;20.30;58.60;;;;;;5159117;27;45472;-70
2023/05/30 11:53:11;;;;;;;2.10;1.15;;;20.30;58.50;;;;;;5163687;27;45291;-70
2023/05/30 11:55:38;;;;;;;4.47;1.23;;;20.30;58.50;;;;;;5165634;27;45432;-70
2023/05/30 11:58:05;;;;;;;3.25;1.30;;;20.30;58.40;;;;;;5161993;27;45371;-70
2023/05/30 12:00:32;;;;;;;3.95;1.60;;;20.30;58.50;;;;;;5154202;27;45507;-70
2023/05/30 12:03:00;;;;;;;2.65;1.52;;;20.30;58.30;;;;;;5158213;27;45342;-71
2023/05/30 12:05:29;;;;;;;3.60;1.13;;;20.30;58.30;;;;;;5163357;27;47103;-71
2023/05/30 12:07:57;;;;;;;3.00;1.20;;;20.30;58.10;;;;;;5126342;27;45740;-71
2023/05/30 12:10:31;;;;;;;2.05;1.17;;;20.30;58.00;;;;;;5166558;27;45463;-71
2023/05/30 12:12:57;;;;;;;3.42;1.20;;;20.30;58.00;;;;;;5162853;27;45371;-70
2023/05/30 12:15:24;;;;;;;2.30;1.40;;;20.30;57.80;;;;;;5152332;27;47430;-70
2023/05/30 12:17:52;;;;;;;2.83;1.25;;;20.30;58.10;;;;;;5162421;27;45461;-70
2023/05/30 12:20:20;;;;;;;1.98;1.00;;;20.30;57.90;;;;;;5160663;27;45330;-71
2023/05/30 12:22:50;;;;;;;4.30;1.58;;;20.30;58.10;;;;;;5161993;27;45490;-71
2023/05/30 12:25:16;;;;;;;3.20;1.42;;;20.30;57.80;;;;;;5163006;27;45360;-73
2023/05/30 12:27:46;;;;;;;4.20;1.30;;;20.30;57.30;;;;;;5170582;27;45647;-72
2023/05/30 12:30:14;;;;;;;1.70;1.15;;;20.30;56.20;;;;;;5165706;27;45298;-74
2023/05/30 12:32:42;;;;;;;3.55;1.25;;;20.30;55.50;;;;;;5161031;27;45594;-75
2023/05/30 12:35:10;;;;;;;3.67;1.20;;;20.30;56.20;;;;;;5161811;27;47601;-75
2023/05/30 12:37:37;;;;;;;2.70;1.40;;;20.40;56.50;;;;;;5154641;27;45389;-75
2023/05/30 12:40:07;;;;;;;3.55;1.38;;;20.40;57.20;;;;;;5156818;27;45421;-74
2023/05/30 12:42:36;;;;;;;3.28;1.30;;;20.40;58.60;;;;;;5156533;27;45317;-74
2023/05/30 12:45:04;;;;;;;4.00;1.30;;;20.40;57.60;;;;;;5159492;27;46082;-74
2023/05/30 12:47:31;;;;;;;2.05;1.20;;;20.40;57.60;;;;;;5149451;27;45354;-74
2023/05/30 12:49:59;;;;;;;1.88;1.10;;;20.40;57.70;;;;;;5150161;27;45375;-74
2023/05/30 12:52:27;;;;;;;1.02;0.93;;;20.40;57.60;;;;;;5152946;27;45889;-74
2023/05/30 12:54:55;;;;;;;1.83;1.30;;;20.40;57.60;;;;;;5151164;27;46492;-74